In Rescue
 
Open Full Screen Window  High Contrast Mode
Wind Gusting 26 knots
16
April 20, 2024 10:35 AM EDT
Weather Information
Wind Direction
  270 °
Wind Speed
  16 kt (18 mph)
Wind Gust
  26 kt (30 mph)
Altimeter
30.02 in
Visibility
10 SM
Temperature
05° C
41° F
Dewpoint
-06° C
21° F
Humidity
45%
Sky Condition
Overcast @ 7,000 ft
Broken @ 5,000 ft
Scattered @ 4,300 ft
VFR

METAR KY31 201435Z AUTO 27016G26KT 10SM SCT043 BKN050 OVC070 05/M06 A3002 RMK AO2 T00521062

FAA Disclaimer: The data displayed is for advisory purposes only and is not to be used for flight planning or operations.